createdAt,value
2019-04-11T00:00:31.308Z,28.73
2019-04-11T00:03:02.988Z,30.17
2019-04-11T00:05:35.064Z,29.50
2019-04-11T00:08:06.017Z,32.43
2019-04-11T00:10:37.471Z,29.37
2019-04-11T00:13:18.229Z,28.20
2019-04-11T00:15:40.589Z,28.63
2019-04-11T00:18:11.549Z,29.07
2019-04-11T00:20:42.397Z,28.63
2019-04-11T00:23:14.210Z,31.30
2019-04-11T00:25:44.641Z,33.47
2019-04-11T00:28:15.369Z,26.63
2019-04-11T00:30:46.199Z,31.07
2019-04-11T00:33:18.132Z,30.93
2019-04-11T00:35:50.207Z,32.57
2019-04-11T00:38:21.452Z,27.97
2019-04-11T00:40:53.221Z,30.80
2019-04-11T00:43:31.560Z,27.63
2019-04-11T00:45:56.184Z,31.73
2019-04-11T00:48:26.661Z,32.27
2019-04-11T00:50:57.711Z,29.53
2019-04-11T00:53:28.268Z,32.83
2019-04-11T00:55:59.877Z,30.93
2019-04-11T00:58:31.799Z,29.47
2019-04-11T01:01:02.463Z,27.90
2019-04-11T01:03:34.042Z,38.47
2019-04-11T01:06:05.771Z,35.00
2019-04-11T01:08:36.357Z,27.17
2019-04-11T01:11:07.816Z,41.10
2019-04-11T01:13:47.347Z,38.27
2019-04-11T01:16:24.661Z,38.27
2019-04-11T01:18:55.200Z,38.17
2019-04-11T01:21:26.882Z,34.37
2019-04-11T01:23:57.500Z,34.87
2019-04-11T01:26:29.752Z,33.87
2019-04-11T01:29:00.926Z,38.53
2019-04-11T01:31:33.706Z,32.37
2019-04-11T01:34:04.480Z,36.53
2019-04-11T01:36:37.932Z,38.00
2019-04-11T01:39:29.352Z,37.07
2019-04-11T01:42:01.178Z,38.67
2019-04-11T01:44:32.517Z,32.20
2019-04-11T01:47:04.966Z,36.47
2019-04-11T01:49:36.507Z,40.33
2019-04-11T01:52:07.273Z,39.47
2019-04-11T01:54:37.789Z,35.70
2019-04-11T01:57:09.642Z,32.43
2019-04-11T01:59:41.675Z,33.17
2019-04-11T02:02:24.358Z,34.50
2019-04-11T02:05:00.674Z,38.00
2019-04-11T02:07:31.315Z,36.30
2019-04-11T02:10:02.489Z,37.10
2019-04-11T02:12:33.166Z,39.73
2019-04-11T02:15:04.023Z,40.83
2019-04-11T02:17:36.729Z,37.47
2019-04-11T02:20:09.116Z,37.50
2019-04-11T02:22:49.057Z,40.50
2019-04-11T02:25:38.783Z,38.27
2019-04-11T02:28:12.626Z,39.30
2019-04-11T02:30:48.377Z,43.20
2019-04-11T02:33:18.761Z,40.17
2019-04-11T02:35:49.666Z,41.57
2019-04-11T02:38:24.383Z,38.43
2019-04-11T02:40:57.311Z,33.10
2019-04-11T02:43:27.662Z,37.30
2019-04-11T02:46:10.063Z,36.63
2019-04-11T02:48:31.079Z,37.83
2019-04-11T02:51:03.106Z,34.13
2019-04-11T02:53:36.639Z,35.70
2019-04-11T02:56:09.289Z,37.83
2019-04-11T02:58:40.259Z,39.50
2019-04-11T03:01:12.734Z,35.03
2019-04-11T03:03:43.128Z,37.27
2019-04-11T03:06:15.151Z,38.80
2019-04-11T03:08:46.582Z,38.93
2019-04-11T03:11:19.097Z,41.60
2019-04-11T03:13:54.690Z,41.33
2019-04-11T03:16:41.308Z,41.90
2019-04-11T03:19:13.261Z,51.33
2019-04-11T03:21:32.979Z,60.70
2019-04-11T03:24:04.367Z,58.97
2019-04-11T03:26:35.681Z,67.37
2019-04-11T03:29:08.454Z,49.03
2019-04-11T03:32:21.693Z,46.17
2019-04-11T03:35:03.071Z,37.70
2019-04-11T03:37:19.278Z,33.07
2019-04-11T03:39:39.782Z,37.93
2019-04-11T03:42:08.005Z,35.27
2019-04-11T03:44:30.593Z,40.73
2019-04-11T03:47:11.206Z,35.67
2019-04-11T03:49:38.942Z,36.63
2019-04-11T03:52:01.332Z,35.27
2019-04-11T03:54:33.993Z,34.20
2019-04-11T03:57:05.486Z,34.40
2019-04-11T03:59:38.446Z,38.70
2019-04-11T04:02:10.817Z,43.00
2019-04-11T04:04:41.938Z,40.53
2019-04-11T04:07:16.163Z,45.13
2019-04-11T04:09:46.286Z,37.37
2019-04-11T04:12:18.659Z,38.40
2019-04-11T04:15:01.238Z,35.20
2019-04-11T04:17:45.528Z,37.07
2019-04-11T04:20:36.949Z,35.97
2019-04-11T04:23:14.119Z,41.27
2019-04-11T04:25:47.130Z,41.03
2019-04-11T04:28:18.917Z,46.70
2019-04-11T04:30:49.551Z,26.67
2019-04-11T04:33:22.201Z,35.73
2019-04-11T04:35:52.447Z,19.00
2019-04-11T04:38:24.054Z,34.57
2019-04-11T04:41:10.071Z,34.50
2019-04-11T04:43:31.813Z,31.37
2019-04-11T04:46:23.813Z,29.13
2019-04-11T04:48:35.719Z,31.67
2019-04-11T04:51:09.119Z,41.33
2019-04-11T04:53:39.060Z,34.63
2019-04-11T04:56:11.113Z,36.87
2019-04-11T04:58:46.645Z,31.30
2019-04-11T05:01:19.097Z,33.73
2019-04-11T05:03:50.929Z,28.30
2019-04-11T05:06:24.116Z,29.27
2019-04-11T05:08:56.021Z,25.27
2019-04-11T05:11:28.340Z,24.07
2019-04-11T05:14:00.748Z,25.90
2019-04-11T05:16:31.283Z,28.33
2019-04-11T05:19:01.865Z,26.67
2019-04-11T05:21:33.075Z,23.03
2019-04-11T05:24:04.104Z,29.53
2019-04-11T05:26:35.482Z,24.83
2019-04-11T05:29:07.279Z,24.87
2019-04-11T05:31:38.720Z,29.03
2019-04-11T05:34:12.181Z,26.17
2019-04-11T05:36:42.933Z,20.23
2019-04-11T05:39:18.399Z,31.43
2019-04-11T05:41:49.844Z,29.67
2019-04-11T05:44:21.188Z,30.13
2019-04-11T05:46:57.255Z,19.23
2019-04-11T05:49:34.391Z,26.33
2019-04-11T05:52:06.076Z,27.93
2019-04-11T05:54:51.086Z,24.73
2019-04-11T05:57:24.116Z,22.80
2019-04-11T05:59:55.147Z,23.33
2019-04-11T06:02:45.675Z,23.83
2019-04-11T06:05:37.229Z,16.83
2019-04-11T06:08:10.028Z,24.63
2019-04-11T06:10:50.593Z,25.37
2019-04-11T06:13:34.722Z,23.43
2019-04-11T06:16:06.357Z,24.60
2019-04-11T06:18:50.124Z,18.87
2019-04-11T06:21:28.363Z,20.83
2019-04-11T06:24:18.328Z,22.70
2019-04-11T06:27:01.469Z,25.07
2019-04-11T06:29:41.044Z,25.77
2019-04-11T06:32:27.774Z,23.23
2019-04-11T06:35:03.875Z,23.87
2019-04-11T06:37:54.265Z,24.37
2019-04-11T06:40:29.907Z,16.67
2019-04-11T06:43:07.790Z,18.83
2019-04-11T06:45:49.910Z,20.43
2019-04-11T06:48:37.954Z,12.90
2019-04-11T06:51:13.599Z,17.17
2019-04-11T06:53:54.477Z,18.73
2019-04-11T06:56:38.452Z,21.23
2019-04-11T06:59:14.369Z,21.50
2019-04-11T07:01:47.488Z,14.63
2019-04-11T07:04:23.632Z,14.93
2019-04-11T07:06:55.855Z,17.40
2019-04-11T07:09:46.925Z,15.60
2019-04-11T07:12:36.941Z,17.80
2019-04-11T07:15:12.200Z,9.23
2019-04-11T07:18:04.649Z,14.90
2019-04-11T07:20:54.220Z,16.53
2019-04-11T07:23:47.010Z,15.40
2019-04-11T07:26:25.093Z,15.90
2019-04-11T07:29:15.290Z,13.90
2019-04-11T07:32:05.235Z,15.20
2019-04-11T07:34:56.432Z,15.10
2019-04-11T07:37:36.765Z,12.03
2019-04-11T07:40:28.810Z,14.70
2019-04-11T07:43:19.066Z,15.13
2019-04-11T07:46:02.629Z,15.17
2019-04-11T07:48:36.460Z,14.07
2019-04-11T07:51:26.176Z,13.43
2019-04-11T07:54:00.187Z,16.57
2019-04-11T07:56:35.950Z,13.50
2019-04-11T07:59:10.780Z,15.17
2019-04-11T08:02:02.293Z,12.40
2019-04-11T08:04:53.223Z,11.33
2019-04-11T08:07:42.958Z,13.53
2019-04-11T08:10:18.270Z,12.83
2019-04-11T08:12:49.911Z,13.27
2019-04-11T08:15:39.885Z,13.83
2019-04-11T08:18:19.071Z,13.43
2019-04-11T08:21:08.701Z,11.07
2019-04-11T08:23:41.253Z,16.40
2019-04-11T08:26:30.902Z,11.87
2019-04-11T08:29:09.179Z,14.57
2019-04-11T08:31:54.847Z,11.57
2019-04-11T08:34:25.552Z,10.23
2019-04-11T08:37:15.704Z,11.97
2019-04-11T08:39:49.656Z,12.30
2019-04-11T08:42:40.672Z,9.97
2019-04-11T08:45:14.307Z,13.00
2019-04-11T08:47:52.147Z,10.90
2019-04-11T08:50:23.956Z,13.30
2019-04-11T08:53:06.632Z,13.10
2019-04-11T08:55:51.899Z,10.47
2019-04-11T08:58:36.945Z,9.10
2019-04-11T09:01:08.955Z,10.87
2019-04-11T09:04:05.109Z,9.47
2019-04-11T09:06:37.080Z,10.33
2019-04-11T09:09:27.521Z,10.87
2019-04-11T09:12:02.373Z,9.13
2019-04-11T09:14:51.135Z,14.00
2019-04-11T09:17:28.224Z,12.00
2019-04-11T09:20:19.105Z,12.40
2019-04-11T09:23:09.297Z,9.20
2019-04-11T09:25:59.444Z,10.90
2019-04-11T09:28:35.905Z,9.47
2019-04-11T09:31:25.627Z,12.00
2019-04-11T09:34:05.669Z,10.40
2019-04-11T09:36:49.812Z,12.83
2019-04-11T09:39:39.521Z,8.97
2019-04-11T09:42:23.194Z,11.33
2019-04-11T09:44:59.892Z,10.27
2019-04-11T09:47:49.817Z,10.00
2019-04-11T09:50:37.333Z,8.20
2019-04-11T09:53:10.691Z,11.00
2019-04-11T09:55:55.764Z,12.13
2019-04-11T09:58:27.513Z,9.80
2019-04-11T10:01:18.389Z,9.13
2019-04-11T10:03:50.486Z,10.53
2019-04-11T10:06:38.871Z,11.33
2019-04-11T10:09:11.501Z,11.00
2019-04-11T10:12:02.314Z,10.73
2019-04-11T10:14:33.470Z,9.27
2019-04-11T10:17:26.003Z,9.47
2019-04-11T10:20:02.750Z,11.23
2019-04-11T10:22:52.797Z,9.20
2019-04-11T10:25:32.135Z,9.57
2019-04-11T10:28:21.959Z,8.70
2019-04-11T10:31:04.769Z,10.40
2019-04-11T10:33:49.060Z,9.27
2019-04-11T10:36:25.347Z,9.90
2019-04-11T10:39:15.282Z,11.70
2019-04-11T10:41:49.130Z,13.50
2019-04-11T10:44:29.826Z,9.80
2019-04-11T10:47:19.327Z,8.40
2019-04-11T10:50:09.100Z,11.53
2019-04-11T10:52:42.864Z,8.93
2019-04-11T10:55:18.310Z,10.50
2019-04-11T10:58:02.709Z,9.33
2019-04-11T11:00:39.723Z,8.97
2019-04-11T11:03:14.006Z,8.97
2019-04-11T11:05:47.464Z,8.37
2019-04-11T11:08:25.668Z,10.77
2019-04-11T11:10:57.802Z,11.67
2019-04-11T11:13:47.923Z,9.17
2019-04-11T11:16:22.314Z,6.93
2019-04-11T11:19:44.137Z,11.27
2019-04-11T11:21:47.103Z,8.37
2019-04-11T11:24:29.340Z,7.27
2019-04-11T11:27:02.888Z,9.90
2019-04-11T11:29:47.524Z,13.83
2019-04-11T11:32:22.470Z,9.63
2019-04-11T11:35:12.901Z,10.07
2019-04-11T11:37:47.099Z,8.60
2019-04-11T11:40:39.168Z,8.73
2019-04-11T11:43:17.024Z,7.93
2019-04-11T11:46:06.923Z,9.47
2019-04-11T11:48:41.744Z,10.33
2019-04-11T11:51:31.651Z,12.67
2019-04-11T11:54:21.943Z,8.97
2019-04-11T11:56:54.190Z,11.07
2019-04-11T11:59:34.356Z,8.73
2019-04-11T12:02:10.561Z,11.43
2019-04-11T12:05:00.328Z,10.27
2019-04-11T12:07:39.386Z,19.27
2019-04-11T12:10:29.145Z,10.20
2019-04-11T12:13:14.730Z,11.23
2019-04-11T12:15:53.250Z,11.33
2019-04-11T12:18:47.170Z,9.53
2019-04-11T12:21:21.913Z,10.53
2019-04-11T12:24:09.709Z,10.20
2019-04-11T12:26:48.656Z,9.70
2019-04-11T12:29:38.620Z,12.53
2019-04-11T12:32:13.229Z,10.07
2019-04-11T12:34:51.811Z,12.63
2019-04-11T12:37:27.557Z,10.67
2019-04-11T12:40:17.029Z,12.37
2019-04-11T12:42:47.886Z,11.73
2019-04-11T12:45:37.697Z,11.13
2019-04-11T12:48:11.947Z,8.70
2019-04-11T12:50:59.943Z,9.40
2019-04-11T12:53:30.462Z,9.93
2019-04-11T12:56:19.922Z,9.67
2019-04-11T12:58:54.341Z,8.73
2019-04-11T13:01:43.951Z,10.27
2019-04-11T13:04:21.463Z,10.33
2019-04-11T13:07:01.501Z,11.60
2019-04-11T13:09:38.836Z,10.37
2019-04-11T13:12:13.502Z,12.13
2019-04-11T13:15:01.231Z,14.17
2019-04-11T13:17:34.551Z,12.67
2019-04-11T13:20:24.601Z,11.70
2019-04-11T13:22:57.795Z,10.30
2019-04-11T13:25:45.495Z,12.43
2019-04-11T13:28:15.576Z,11.63
2019-04-11T13:31:05.331Z,16.33
2019-04-11T13:33:36.216Z,11.10
2019-04-11T13:36:26.054Z,11.23
2019-04-11T13:38:56.731Z,10.00
2019-04-11T13:41:40.321Z,15.53
2019-04-11T13:44:20.607Z,10.20
2019-04-11T13:47:10.526Z,10.60
2019-04-11T13:49:44.207Z,9.27
2019-04-11T13:52:34.096Z,9.63
2019-04-11T13:55:08.015Z,12.13
2019-04-11T13:57:57.593Z,11.33
2019-04-11T14:00:47.882Z,13.30
2019-04-11T14:03:38.698Z,19.30
2019-04-11T14:06:16.630Z,17.07
2019-04-11T14:09:06.523Z,22.37
2019-04-11T14:11:41.295Z,18.57
2019-04-11T14:14:15.148Z,11.23
2019-04-11T14:17:05.413Z,10.80
2019-04-11T14:19:53.188Z,13.70
2019-04-11T14:22:29.096Z,12.80
2019-04-11T14:25:15.068Z,14.57
2019-04-11T14:27:46.022Z,12.63
2019-04-11T14:30:35.779Z,10.50
2019-04-11T14:33:06.603Z,12.73
2019-04-11T14:35:57.751Z,16.93
2019-04-11T14:38:32.331Z,11.87
2019-04-11T14:41:21.966Z,12.00
2019-04-11T14:44:00.898Z,15.07
2019-04-11T14:46:50.792Z,10.63
2019-04-11T14:49:21.521Z,12.83
2019-04-11T14:52:06.654Z,18.03
2019-04-11T14:54:48.893Z,13.30
2019-04-11T14:57:37.098Z,13.13
2019-04-11T15:00:33.018Z,13.40
2019-04-11T15:03:22.836Z,12.80
2019-04-11T15:06:14.777Z,14.13
2019-04-11T15:09:05.110Z,11.00
2019-04-11T15:11:47.940Z,13.87
2019-04-11T15:14:30.671Z,12.57
2019-04-11T15:17:14.532Z,12.40
2019-04-11T15:19:49.700Z,17.30
2019-04-11T15:22:35.513Z,14.43
2019-04-11T15:25:13.554Z,15.67
2019-04-11T15:28:03.400Z,13.07
2019-04-11T15:30:38.523Z,17.97
2019-04-11T15:33:28.219Z,14.90
2019-04-11T15:35:58.728Z,13.47
2019-04-11T15:38:48.359Z,14.37
2019-04-11T15:41:18.863Z,14.07
2019-04-11T15:44:08.378Z,13.60
2019-04-11T15:46:38.928Z,15.27
2019-04-11T15:49:31.276Z,12.30
2019-04-11T15:52:06.934Z,11.53
2019-04-11T15:54:55.994Z,29.30
2019-04-11T15:57:34.867Z,23.60
2019-04-11T16:00:26.782Z,15.77
2019-04-11T16:03:17.981Z,16.33
2019-04-11T16:06:07.524Z,19.67
2019-04-11T16:08:49.996Z,35.43
2019-04-11T16:11:39.747Z,14.60
2019-04-11T16:14:18.910Z,15.20
2019-04-11T16:16:56.245Z,22.90
2019-04-11T16:19:47.881Z,22.43
2019-04-11T16:22:37.683Z,38.23
2019-04-11T16:25:13.673Z,21.57
2019-04-11T16:28:06.581Z,22.33
2019-04-11T16:30:43.128Z,11.47
2019-04-11T16:33:24.872Z,12.23
2019-04-11T16:36:04.042Z,14.00
2019-04-11T16:38:51.054Z,12.50
2019-04-11T16:41:41.139Z,11.33
2019-04-11T16:44:18.408Z,11.40
2019-04-11T16:47:08.383Z,14.20
2019-04-11T16:49:42.151Z,18.37
2019-04-11T16:52:12.307Z,18.63
2019-04-11T16:54:43.099Z,30.20
2019-04-11T16:57:14.340Z,18.40
2019-04-11T16:59:44.956Z,17.20
2019-04-11T17:02:16.000Z,17.13
2019-04-11T17:04:46.842Z,16.90
2019-04-11T17:07:29.575Z,15.87
2019-04-11T17:10:00.415Z,20.37
2019-04-11T17:12:30.985Z,45.83
2019-04-11T17:15:03.995Z,47.37
2019-04-11T17:17:36.677Z,63.10
2019-04-11T17:20:08.135Z,62.97
2019-04-11T17:22:38.883Z,43.03
2019-04-11T17:25:12.343Z,44.33
2019-04-11T17:27:45.198Z,49.10
2019-04-11T17:30:16.069Z,63.70
2019-04-11T17:32:48.039Z,55.30
2019-04-11T17:35:18.729Z,28.97
2019-04-11T17:37:50.033Z,31.30
2019-04-11T17:40:21.695Z,28.97
2019-04-11T17:42:53.048Z,69.80
2019-04-11T17:45:24.125Z,25.70
2019-04-11T17:47:57.284Z,29.93
2019-04-11T17:50:35.001Z,26.90
2019-04-11T17:53:08.145Z,23.13
2019-04-11T17:55:40.876Z,25.43
2019-04-11T17:58:12.008Z,30.37
2019-04-11T18:00:46.818Z,26.57
2019-04-11T18:03:19.564Z,34.77
2019-04-11T18:05:52.490Z,29.70
2019-04-11T18:08:30.804Z,32.93
2019-04-11T18:11:10.852Z,41.03
2019-04-11T18:13:42.462Z,35.93
2019-04-11T18:16:20.304Z,40.47
2019-04-11T18:18:56.560Z,33.27
2019-04-11T18:21:34.867Z,38.33
2019-04-11T18:24:13.880Z,37.23
2019-04-11T18:26:52.525Z,32.83
2019-04-11T18:29:28.354Z,31.37
2019-04-11T18:32:04.628Z,31.60
2019-04-11T18:34:39.475Z,33.87
2019-04-11T18:37:15.877Z,31.67
2019-04-11T18:39:52.033Z,31.73
2019-04-11T18:42:30.579Z,30.63
2019-04-11T18:45:08.067Z,28.40
2019-04-11T18:47:44.912Z,27.63
2019-04-11T18:50:22.744Z,22.27
2019-04-11T18:53:00.518Z,28.03
2019-04-11T18:55:40.166Z,27.07
2019-04-11T18:58:15.389Z,23.03
2019-04-11T19:00:50.536Z,25.43
2019-04-11T19:03:36.117Z,24.47
2019-04-11T19:06:13.110Z,29.33
2019-04-11T19:08:48.995Z,28.10
2019-04-11T19:11:26.298Z,29.03
2019-04-11T19:14:06.604Z,32.50
2019-04-11T19:16:45.933Z,27.97
2019-04-11T19:19:27.466Z,29.00
2019-04-11T19:22:06.702Z,27.33
2019-04-11T19:24:44.507Z,26.03
2019-04-11T19:27:21.087Z,26.17
2019-04-11T19:29:59.103Z,25.87
2019-04-11T19:32:35.286Z,26.53
2019-04-11T19:35:15.096Z,32.23
2019-04-11T19:37:52.213Z,25.00
2019-04-11T19:40:25.465Z,29.30
2019-04-11T19:42:59.634Z,27.23
2019-04-11T19:45:34.473Z,30.13
2019-04-11T19:48:08.033Z,33.73
2019-04-11T19:50:39.930Z,38.17
2019-04-11T19:53:15.569Z,32.50
2019-04-11T19:56:11.197Z,30.17
2019-04-11T19:58:44.298Z,32.97
2019-04-11T20:01:23.520Z,35.70
2019-04-11T20:04:01.635Z,32.60
2019-04-11T20:06:41.113Z,44.83
2019-04-11T20:09:14.743Z,48.07
2019-04-11T20:11:49.278Z,57.53
2019-04-11T20:14:21.167Z,57.63
2019-04-11T20:16:59.196Z,57.40
2019-04-11T20:19:30.663Z,52.33
2019-04-11T20:22:08.606Z,52.17
2019-04-11T20:24:46.850Z,48.90
2019-04-11T20:27:20.939Z,51.03
2019-04-11T20:29:55.272Z,47.90
2019-04-11T20:32:25.752Z,56.87
2019-04-11T20:34:56.315Z,52.80
2019-04-11T20:37:38.516Z,51.97
2019-04-11T20:39:59.150Z,52.47
2019-04-11T20:42:30.191Z,57.67
2019-04-11T20:45:00.796Z,53.50
2019-04-11T20:47:31.410Z,59.93
2019-04-11T20:50:07.404Z,55.70
2019-04-11T20:52:34.469Z,56.27
2019-04-11T20:55:08.945Z,52.47
2019-04-11T20:57:37.469Z,62.90
2019-04-11T21:00:12.082Z,65.03
2019-04-11T21:02:40.630Z,55.63
2019-04-11T21:05:11.215Z,60.07
2019-04-11T21:07:41.840Z,44.97
2019-04-11T21:10:12.557Z,46.13
2019-04-11T21:12:43.029Z,39.57
2019-04-11T21:15:16.433Z,49.87
2019-04-11T21:17:49.095Z,47.77
2019-04-11T21:20:19.369Z,40.07
2019-04-11T21:22:53.744Z,39.67
2019-04-11T21:25:22.271Z,36.00
2019-04-11T21:27:52.905Z,46.70
2019-04-11T21:30:30.310Z,41.33
2019-04-11T21:33:01.086Z,42.13
2019-04-11T21:35:33.409Z,47.13
2019-04-11T21:38:05.769Z,42.33
2019-04-11T21:40:36.616Z,38.67
2019-04-11T21:43:07.305Z,41.37
2019-04-11T21:45:39.072Z,43.43
2019-04-11T21:48:09.678Z,34.17
2019-04-11T21:50:41.239Z,36.47
2019-04-11T21:53:14.293Z,34.37
2019-04-11T21:55:47.435Z,36.40
2019-04-11T21:58:19.411Z,42.07
2019-04-11T22:00:54.363Z,38.47
2019-04-11T22:03:25.662Z,30.27
2019-04-11T22:05:59.613Z,39.60
2019-04-11T22:08:28.651Z,31.37
2019-04-11T22:10:59.337Z,35.63
2019-04-11T22:13:29.951Z,35.67
2019-04-11T22:16:00.650Z,35.47
2019-04-11T22:18:31.331Z,33.20
2019-04-11T22:21:05.397Z,41.73
2019-04-11T22:23:48.134Z,36.00
2019-04-11T22:26:08.211Z,31.60
2019-04-11T22:28:38.654Z,30.93
2019-04-11T22:31:09.286Z,33.00
2019-04-11T22:33:43.829Z,29.90
2019-04-11T22:36:14.358Z,26.20
2019-04-11T22:38:45.097Z,25.73
2019-04-11T22:41:15.643Z,26.93
2019-04-11T22:43:46.087Z,26.53
2019-04-11T22:46:20.981Z,29.23
2019-04-11T22:48:48.897Z,26.03
2019-04-11T22:51:19.514Z,25.57
2019-04-11T22:53:59.924Z,31.43
2019-04-11T22:56:23.377Z,32.37
2019-04-11T22:58:55.019Z,32.03
2019-04-11T23:01:25.844Z,32.63
2019-04-11T23:03:59.638Z,33.37
2019-04-11T23:06:30.570Z,31.20
2019-04-11T23:09:02.026Z,31.87
2019-04-11T23:11:44.504Z,29.43
2019-04-11T23:14:15.789Z,34.80
2019-04-11T23:16:45.591Z,25.20
2019-04-11T23:19:16.360Z,25.17
2019-04-11T23:21:46.881Z,25.30
2019-04-11T23:24:17.408Z,26.00
2019-04-11T23:26:48.061Z,27.40
2019-04-11T23:29:18.623Z,30.23
2019-04-11T23:31:50.869Z,26.37
2019-04-11T23:34:22.131Z,25.83
2019-04-11T23:36:54.291Z,25.23
2019-04-11T23:39:24.835Z,25.73
2019-04-11T23:41:55.311Z,28.13
2019-04-11T23:44:25.794Z,30.33
2019-04-11T23:46:56.434Z,29.20
2019-04-11T23:49:26.877Z,27.20
2019-04-11T23:51:57.344Z,41.30
2019-04-11T23:54:29.252Z,40.47
2019-04-11T23:57:00.948Z,52.83
2019-04-11T23:59:34.400Z,53.40
